sensor_id;sensor_type;location;lat;lon;timestamp;P1;durP1;ratioP1;P2;durP2;ratioP2
57561;SDS011;43397;51.530;5.974;2023-06-24T00:01:22;19.27;;;14.98;;
57561;SDS011;43397;51.530;5.974;2023-06-24T00:03:48;17.25;;;14.75;;
57561;SDS011;43397;51.530;5.974;2023-06-24T00:06:15;19.20;;;14.68;;
57561;SDS011;43397;51.530;5.974;2023-06-24T00:08:40;19.83;;;15.48;;
57561;SDS011;43397;51.530;5.974;2023-06-24T00:11:06;17.85;;;14.57;;
57561;SDS011;43397;51.530;5.974;2023-06-24T00:13:31;18.25;;;14.52;;
57561;SDS011;43397;51.530;5.974;2023-06-24T00:15:57;18.85;;;14.90;;
57561;SDS011;43397;51.530;5.974;2023-06-24T00:18:23;17.73;;;14.95;;
57561;SDS011;43397;51.530;5.974;2023-06-24T00:20:48;22.98;;;18.27;;
57561;SDS011;43397;51.530;5.974;2023-06-24T00:23:16;22.85;;;16.80;;
57561;SDS011;43397;51.530;5.974;2023-06-24T00:25:46;21.38;;;15.35;;
57561;SDS011;43397;51.530;5.974;2023-06-24T00:28:12;18.20;;;14.43;;
57561;SDS011;43397;51.530;5.974;2023-06-24T00:30:38;18.50;;;15.35;;
57561;SDS011;43397;51.530;5.974;2023-06-24T00:33:03;19.08;;;13.10;;
57561;SDS011;43397;51.530;5.974;2023-06-24T00:35:29;16.60;;;12.70;;
57561;SDS011;43397;51.530;5.974;2023-06-24T00:37:55;14.02;;;11.55;;
57561;SDS011;43397;51.530;5.974;2023-06-24T00:40:22;18.25;;;12.98;;
57561;SDS011;43397;51.530;5.974;2023-06-24T00:42:47;19.90;;;14.05;;
57561;SDS011;43397;51.530;5.974;2023-06-24T00:45:13;17.73;;;13.38;;
57561;SDS011;43397;51.530;5.974;2023-06-24T00:47:40;18.25;;;13.77;;
57561;SDS011;43397;51.530;5.974;2023-06-24T00:50:06;16.85;;;13.93;;
57561;SDS011;43397;51.530;5.974;2023-06-24T00:52:32;19.77;;;14.35;;
57561;SDS011;43397;51.530;5.974;2023-06-24T00:54:58;18.50;;;14.27;;
57561;SDS011;43397;51.530;5.974;2023-06-24T00:57:25;19.02;;;14.65;;
57561;SDS011;43397;51.530;5.974;2023-06-24T00:59:50;19.17;;;15.20;;
57561;SDS011;43397;51.530;5.974;2023-06-24T01:02:16;20.00;;;13.30;;
57561;SDS011;43397;51.530;5.974;2023-06-24T01:04:42;17.50;;;13.45;;
57561;SDS011;43397;51.530;5.974;2023-06-24T01:07:07;17.70;;;13.23;;
57561;SDS011;43397;51.530;5.974;2023-06-24T01:09:34;19.73;;;14.63;;
57561;SDS011;43397;51.530;5.974;2023-06-24T01:11:59;18.92;;;15.38;;
57561;SDS011;43397;51.530;5.974;2023-06-24T01:14:26;19.88;;;14.13;;
57561;SDS011;43397;51.530;5.974;2023-06-24T01:16:53;18.92;;;15.10;;
57561;SDS011;43397;51.530;5.974;2023-06-24T01:19:31;18.20;;;14.38;;
57561;SDS011;43397;51.530;5.974;2023-06-24T01:22:09;18.67;;;14.32;;
57561;SDS011;43397;51.530;5.974;2023-06-24T01:24:47;19.83;;;15.88;;
57561;SDS011;43397;51.530;5.974;2023-06-24T01:27:45;18.10;;;14.90;;
57561;SDS011;43397;51.530;5.974;2023-06-24T01:33:23;20.73;;;15.98;;
57561;SDS011;43397;51.530;5.974;2023-06-24T01:35:55;20.75;;;14.02;;
57561;SDS011;43397;51.530;5.974;2023-06-24T01:38:23;17.48;;;14.77;;
57561;SDS011;43397;51.530;5.974;2023-06-24T01:40:55;19.30;;;14.82;;
57561;SDS011;43397;51.530;5.974;2023-06-24T01:43:21;21.98;;;16.52;;
57561;SDS011;43397;51.530;5.974;2023-06-24T01:45:51;21.13;;;15.45;;
57561;SDS011;43397;51.530;5.974;2023-06-24T01:48:21;21.35;;;15.35;;
57561;SDS011;43397;51.530;5.974;2023-06-24T01:50:53;20.48;;;16.15;;
57561;SDS011;43397;51.530;5.974;2023-06-24T01:53:23;24.35;;;17.30;;
57561;SDS011;43397;51.530;5.974;2023-06-24T01:55:49;23.17;;;17.65;;
57561;SDS011;43397;51.530;5.974;2023-06-24T01:58:18;24.13;;;18.73;;
57561;SDS011;43397;51.530;5.974;2023-06-24T02:00:47;25.03;;;19.63;;
57561;SDS011;43397;51.530;5.974;2023-06-24T02:03:13;23.38;;;19.20;;
57561;SDS011;43397;51.530;5.974;2023-06-24T02:05:41;25.48;;;19.55;;
57561;SDS011;43397;51.530;5.974;2023-06-24T02:08:08;26.30;;;19.30;;
57561;SDS011;43397;51.530;5.974;2023-06-24T02:10:36;26.15;;;20.90;;
57561;SDS011;43397;51.530;5.974;2023-06-24T02:13:03;26.60;;;20.75;;
57561;SDS011;43397;51.530;5.974;2023-06-24T02:15:30;31.20;;;22.48;;
57561;SDS011;43397;51.530;5.974;2023-06-24T02:17:56;28.73;;;20.02;;
57561;SDS011;43397;51.530;5.974;2023-06-24T02:20:24;26.70;;;21.50;;
57561;SDS011;43397;51.530;5.974;2023-06-24T02:22:52;26.40;;;20.92;;
57561;SDS011;43397;51.530;5.974;2023-06-24T02:25:19;25.50;;;21.30;;
57561;SDS011;43397;51.530;5.974;2023-06-24T02:27:45;27.65;;;20.15;;
57561;SDS011;43397;51.530;5.974;2023-06-24T02:30:12;30.65;;;21.83;;
57561;SDS011;43397;51.530;5.974;2023-06-24T02:32:39;28.33;;;21.98;;
57561;SDS011;43397;51.530;5.974;2023-06-24T02:35:06;29.38;;;21.80;;
57561;SDS011;43397;51.530;5.974;2023-06-24T02:37:32;27.70;;;21.38;;
57561;SDS011;43397;51.530;5.974;2023-06-24T02:39:59;27.60;;;21.70;;
57561;SDS011;43397;51.530;5.974;2023-06-24T02:42:26;27.55;;;21.48;;
57561;SDS011;43397;51.530;5.974;2023-06-24T02:44:52;27.80;;;21.48;;
57561;SDS011;43397;51.530;5.974;2023-06-24T02:47:18;28.15;;;21.23;;
57561;SDS011;43397;51.530;5.974;2023-06-24T02:49:46;31.03;;;22.63;;
57561;SDS011;43397;51.530;5.974;2023-06-24T02:52:13;26.65;;;21.42;;
57561;SDS011;43397;51.530;5.974;2023-06-24T02:54:41;27.42;;;22.10;;
57561;SDS011;43397;51.530;5.974;2023-06-24T02:57:08;28.67;;;21.48;;
57561;SDS011;43397;51.530;5.974;2023-06-24T02:59:34;27.55;;;22.20;;
57561;SDS011;43397;51.530;5.974;2023-06-24T03:02:00;27.98;;;21.85;;
57561;SDS011;43397;51.530;5.974;2023-06-24T03:04:25;28.10;;;21.45;;
57561;SDS011;43397;51.530;5.974;2023-06-24T03:06:52;27.00;;;21.63;;
57561;SDS011;43397;51.530;5.974;2023-06-24T03:09:18;28.38;;;21.88;;
57561;SDS011;43397;51.530;5.974;2023-06-24T03:11:44;26.50;;;21.75;;
57561;SDS011;43397;51.530;5.974;2023-06-24T03:14:11;31.38;;;22.33;;
57561;SDS011;43397;51.530;5.974;2023-06-24T03:16:37;25.60;;;20.75;;
57561;SDS011;43397;51.530;5.974;2023-06-24T03:19:03;23.92;;;18.77;;
57561;SDS011;43397;51.530;5.974;2023-06-24T03:21:29;23.38;;;19.55;;
57561;SDS011;43397;51.530;5.974;2023-06-24T03:23:55;27.10;;;21.17;;
57561;SDS011;43397;51.530;5.974;2023-06-24T03:26:20;28.13;;;21.33;;
57561;SDS011;43397;51.530;5.974;2023-06-24T03:28:46;30.23;;;23.85;;
57561;SDS011;43397;51.530;5.974;2023-06-24T03:31:14;29.83;;;23.95;;
57561;SDS011;43397;51.530;5.974;2023-06-24T03:33:40;32.13;;;24.92;;
57561;SDS011;43397;51.530;5.974;2023-06-24T03:36:05;34.35;;;27.67;;
57561;SDS011;43397;51.530;5.974;2023-06-24T03:38:31;38.25;;;26.55;;
57561;SDS011;43397;51.530;5.974;2023-06-24T03:40:57;36.05;;;28.75;;
57561;SDS011;43397;51.530;5.974;2023-06-24T03:43:22;42.53;;;30.48;;
57561;SDS011;43397;51.530;5.974;2023-06-24T03:45:48;37.25;;;29.88;;
57561;SDS011;43397;51.530;5.974;2023-06-24T03:48:15;42.38;;;32.78;;
57561;SDS011;43397;51.530;5.974;2023-06-24T03:50:41;43.47;;;33.05;;
57561;SDS011;43397;51.530;5.974;2023-06-24T03:53:06;43.97;;;33.15;;
57561;SDS011;43397;51.530;5.974;2023-06-24T03:55:32;43.05;;;33.25;;
57561;SDS011;43397;51.530;5.974;2023-06-24T03:57:57;42.05;;;31.38;;
57561;SDS011;43397;51.530;5.974;2023-06-24T04:00:23;40.25;;;32.15;;
57561;SDS011;43397;51.530;5.974;2023-06-24T04:02:49;40.88;;;32.33;;
57561;SDS011;43397;51.530;5.974;2023-06-24T04:05:16;40.58;;;32.78;;
57561;SDS011;43397;51.530;5.974;2023-06-24T04:07:42;43.25;;;32.97;;
57561;SDS011;43397;51.530;5.974;2023-06-24T04:10:08;38.30;;;32.53;;
57561;SDS011;43397;51.530;5.974;2023-06-24T04:12:35;38.10;;;31.90;;
57561;SDS011;43397;51.530;5.974;2023-06-24T04:15:00;42.40;;;34.58;;
57561;SDS011;43397;51.530;5.974;2023-06-24T04:17:26;44.38;;;36.33;;
57561;SDS011;43397;51.530;5.974;2023-06-24T04:19:52;47.72;;;39.15;;
57561;SDS011;43397;51.530;5.974;2023-06-24T04:22:19;44.30;;;39.45;;
57561;SDS011;43397;51.530;5.974;2023-06-24T04:24:44;42.55;;;37.60;;
57561;SDS011;43397;51.530;5.974;2023-06-24T04:27:10;45.42;;;37.83;;
57561;SDS011;43397;51.530;5.974;2023-06-24T04:29:36;44.78;;;39.67;;
57561;SDS011;43397;51.530;5.974;2023-06-24T04:32:01;42.05;;;37.50;;
57561;SDS011;43397;51.530;5.974;2023-06-24T04:34:27;39.78;;;35.10;;
57561;SDS011;43397;51.530;5.974;2023-06-24T04:36:53;38.47;;;34.40;;
57561;SDS011;43397;51.530;5.974;2023-06-24T04:39:20;36.22;;;32.35;;
57561;SDS011;43397;51.530;5.974;2023-06-24T04:41:46;37.25;;;33.30;;
57561;SDS011;43397;51.530;5.974;2023-06-24T04:44:11;34.40;;;30.77;;
57561;SDS011;43397;51.530;5.974;2023-06-24T04:46:37;33.80;;;30.15;;
57561;SDS011;43397;51.530;5.974;2023-06-24T04:49:03;36.25;;;32.45;;
57561;SDS011;43397;51.530;5.974;2023-06-24T04:51:28;35.17;;;31.40;;
57561;SDS011;43397;51.530;5.974;2023-06-24T04:53:54;32.55;;;29.02;;
57561;SDS011;43397;51.530;5.974;2023-06-24T04:56:21;33.15;;;29.55;;
57561;SDS011;43397;51.530;5.974;2023-06-24T04:58:47;31.45;;;28.08;;
57561;SDS011;43397;51.530;5.974;2023-06-24T05:01:12;29.58;;;26.63;;
57561;SDS011;43397;51.530;5.974;2023-06-24T05:03:38;28.98;;;26.05;;
57561;SDS011;43397;51.530;5.974;2023-06-24T05:06:03;27.02;;;24.40;;
57561;SDS011;43397;51.530;5.974;2023-06-24T05:08:29;26.17;;;23.55;;
57561;SDS011;43397;51.530;5.974;2023-06-24T05:10:55;26.85;;;24.05;;
57561;SDS011;43397;51.530;5.974;2023-06-24T05:13:23;23.98;;;21.05;;
57561;SDS011;43397;51.530;5.974;2023-06-24T05:15:48;23.60;;;21.20;;
57561;SDS011;43397;51.530;5.974;2023-06-24T05:18:14;20.55;;;18.45;;
57561;SDS011;43397;51.530;5.974;2023-06-24T05:20:40;21.10;;;18.60;;
57561;SDS011;43397;51.530;5.974;2023-06-24T05:23:05;22.40;;;20.08;;
57561;SDS011;43397;51.530;5.974;2023-06-24T05:25:31;19.52;;;17.55;;
57561;SDS011;43397;51.530;5.974;2023-06-24T05:28:05;21.00;;;18.85;;
57561;SDS011;43397;51.530;5.974;2023-06-24T05:30:33;21.20;;;19.10;;
57561;SDS011;43397;51.530;5.974;2023-06-24T05:32:58;20.08;;;18.15;;
57561;SDS011;43397;51.530;5.974;2023-06-24T05:35:24;19.00;;;17.10;;
57561;SDS011;43397;51.530;5.974;2023-06-24T05:37:50;18.98;;;17.00;;
57561;SDS011;43397;51.530;5.974;2023-06-24T05:40:15;18.88;;;17.08;;
57561;SDS011;43397;51.530;5.974;2023-06-24T05:42:41;19.95;;;16.77;;
57561;SDS011;43397;51.530;5.974;2023-06-24T05:45:07;18.20;;;15.93;;
57561;SDS011;43397;51.530;5.974;2023-06-24T05:47:34;17.25;;;15.13;;
57561;SDS011;43397;51.530;5.974;2023-06-24T05:50:00;15.27;;;13.55;;
57561;SDS011;43397;51.530;5.974;2023-06-24T05:52:25;15.15;;;13.38;;
57561;SDS011;43397;51.530;5.974;2023-06-24T05:54:51;13.18;;;11.77;;
57561;SDS011;43397;51.530;5.974;2023-06-24T05:57:17;13.07;;;11.00;;
57561;SDS011;43397;51.530;5.974;2023-06-24T05:59:42;13.20;;;11.55;;
57561;SDS011;43397;51.530;5.974;2023-06-24T06:02:08;13.00;;;11.15;;
57561;SDS011;43397;51.530;5.974;2023-06-24T06:04:36;14.95;;;11.23;;
57561;SDS011;43397;51.530;5.974;2023-06-24T06:07:01;15.23;;;11.23;;
57561;SDS011;43397;51.530;5.974;2023-06-24T06:09:27;14.27;;;11.88;;
57561;SDS011;43397;51.530;5.974;2023-06-24T06:11:53;15.63;;;11.90;;
57561;SDS011;43397;51.530;5.974;2023-06-24T06:14:19;14.45;;;11.32;;
57561;SDS011;43397;51.530;5.974;2023-06-24T06:16:44;14.50;;;11.02;;
57561;SDS011;43397;51.530;5.974;2023-06-24T06:19:10;14.98;;;11.68;;
57561;SDS011;43397;51.530;5.974;2023-06-24T06:21:37;16.02;;;12.13;;
57561;SDS011;43397;51.530;5.974;2023-06-24T06:24:03;15.02;;;11.27;;
57561;SDS011;43397;51.530;5.974;2023-06-24T06:26:29;14.07;;;10.57;;
57561;SDS011;43397;51.530;5.974;2023-06-24T06:28:55;14.30;;;11.20;;
57561;SDS011;43397;51.530;5.974;2023-06-24T06:31:21;14.57;;;11.27;;
57561;SDS011;43397;51.530;5.974;2023-06-24T06:33:46;13.88;;;10.50;;
57561;SDS011;43397;51.530;5.974;2023-06-24T06:36:12;14.23;;;10.73;;
57561;SDS011;43397;51.530;5.974;2023-06-24T06:38:40;14.95;;;11.98;;
57561;SDS011;43397;51.530;5.974;2023-06-24T06:41:06;15.38;;;12.45;;
57561;SDS011;43397;51.530;5.974;2023-06-24T06:43:33;18.08;;;12.10;;
57561;SDS011;43397;51.530;5.974;2023-06-24T06:45:59;15.70;;;11.95;;
57561;SDS011;43397;51.530;5.974;2023-06-24T06:48:25;17.40;;;13.63;;
57561;SDS011;43397;51.530;5.974;2023-06-24T06:50:50;16.27;;;13.35;;
57561;SDS011;43397;51.530;5.974;2023-06-24T06:53:16;15.07;;;12.52;;
57561;SDS011;43397;51.530;5.974;2023-06-24T06:55:43;15.40;;;12.88;;
57561;SDS011;43397;51.530;5.974;2023-06-24T06:58:09;16.00;;;12.27;;
57561;SDS011;43397;51.530;5.974;2023-06-24T07:00:35;16.25;;;12.75;;
57561;SDS011;43397;51.530;5.974;2023-06-24T07:03:00;16.42;;;12.65;;
57561;SDS011;43397;51.530;5.974;2023-06-24T07:05:26;16.05;;;9.85;;
57561;SDS011;43397;51.530;5.974;2023-06-24T07:07:51;11.93;;;9.10;;
57561;SDS011;43397;51.530;5.974;2023-06-24T07:10:17;14.43;;;10.23;;
57561;SDS011;43397;51.530;5.974;2023-06-24T07:12:44;14.30;;;10.20;;
57561;SDS011;43397;51.530;5.974;2023-06-24T07:15:10;15.77;;;11.93;;
57561;SDS011;43397;51.530;5.974;2023-06-24T07:17:36;15.80;;;11.13;;
57561;SDS011;43397;51.530;5.974;2023-06-24T07:20:02;15.57;;;10.90;;
57561;SDS011;43397;51.530;5.974;2023-06-24T07:22:28;13.13;;;10.77;;
57561;SDS011;43397;51.530;5.974;2023-06-24T07:24:54;15.10;;;10.80;;
57561;SDS011;43397;51.530;5.974;2023-06-24T07:27:19;14.77;;;11.02;;
57561;SDS011;43397;51.530;5.974;2023-06-24T07:29:46;14.30;;;11.00;;
57561;SDS011;43397;51.530;5.974;2023-06-24T07:32:12;14.00;;;11.52;;
57561;SDS011;43397;51.530;5.974;2023-06-24T07:34:37;13.32;;;10.57;;
57561;SDS011;43397;51.530;5.974;2023-06-24T07:37:03;14.45;;;10.18;;
57561;SDS011;43397;51.530;5.974;2023-06-24T07:39:29;11.50;;;9.52;;
57561;SDS011;43397;51.530;5.974;2023-06-24T07:41:54;11.57;;;9.27;;
57561;SDS011;43397;51.530;5.974;2023-06-24T07:44:20;13.00;;;8.75;;
57561;SDS011;43397;51.530;5.974;2023-06-24T07:46:47;11.45;;;8.25;;
57561;SDS011;43397;51.530;5.974;2023-06-24T07:49:13;11.05;;;8.02;;
57561;SDS011;43397;51.530;5.974;2023-06-24T07:51:38;10.05;;;7.97;;
57561;SDS011;43397;51.530;5.974;2023-06-24T07:54:04;11.63;;;8.63;;
57561;SDS011;43397;51.530;5.974;2023-06-24T07:56:30;11.25;;;8.10;;
57561;SDS011;43397;51.530;5.974;2023-06-24T07:58:55;11.32;;;6.50;;
57561;SDS011;43397;51.530;5.974;2023-06-24T08:01:21;9.98;;;6.68;;
57561;SDS011;43397;51.530;5.974;2023-06-24T08:03:48;10.25;;;7.10;;
57561;SDS011;43397;51.530;5.974;2023-06-24T08:06:13;9.38;;;7.22;;
57561;SDS011;43397;51.530;5.974;2023-06-24T08:08:39;10.60;;;8.07;;
57561;SDS011;43397;51.530;5.974;2023-06-24T08:11:05;9.50;;;6.85;;
57561;SDS011;43397;51.530;5.974;2023-06-24T08:13:30;7.35;;;5.10;;
57561;SDS011;43397;51.530;5.974;2023-06-24T08:15:56;7.43;;;5.35;;
57561;SDS011;43397;51.530;5.974;2023-06-24T08:18:22;8.98;;;5.65;;
57561;SDS011;43397;51.530;5.974;2023-06-24T08:20:49;10.43;;;6.72;;
57561;SDS011;43397;51.530;5.974;2023-06-24T08:23:14;9.40;;;7.03;;
57561;SDS011;43397;51.530;5.974;2023-06-24T08:25:40;10.73;;;6.35;;
57561;SDS011;43397;51.530;5.974;2023-06-24T08:28:06;11.88;;;7.50;;
57561;SDS011;43397;51.530;5.974;2023-06-24T08:30:31;10.60;;;7.28;;
57561;SDS011;43397;51.530;5.974;2023-06-24T08:32:57;10.27;;;7.15;;
57561;SDS011;43397;51.530;5.974;2023-06-24T08:35:23;9.95;;;7.85;;
57561;SDS011;43397;51.530;5.974;2023-06-24T08:37:50;11.93;;;9.48;;
57561;SDS011;43397;51.530;5.974;2023-06-24T08:40:15;12.02;;;9.98;;
57561;SDS011;43397;51.530;5.974;2023-06-24T08:42:42;12.23;;;8.68;;
57561;SDS011;43397;51.530;5.974;2023-06-24T08:45:09;10.63;;;8.15;;
57561;SDS011;43397;51.530;5.974;2023-06-24T08:47:35;10.60;;;7.32;;
57561;SDS011;43397;51.530;5.974;2023-06-24T08:50:01;9.32;;;6.53;;
57561;SDS011;43397;51.530;5.974;2023-06-24T08:52:30;10.40;;;7.35;;
57561;SDS011;43397;51.530;5.974;2023-06-24T08:55:02;11.25;;;7.70;;
57561;SDS011;43397;51.530;5.974;2023-06-24T08:57:29;11.40;;;7.68;;
57561;SDS011;43397;51.530;5.974;2023-06-24T08:59:55;9.15;;;7.03;;
57561;SDS011;43397;51.530;5.974;2023-06-24T09:02:20;10.82;;;7.18;;
57561;SDS011;43397;51.530;5.974;2023-06-24T09:04:46;10.55;;;7.53;;
57561;SDS011;43397;51.530;5.974;2023-06-24T09:07:12;10.98;;;7.15;;
57561;SDS011;43397;51.530;5.974;2023-06-24T09:09:41;10.05;;;6.55;;
57561;SDS011;43397;51.530;5.974;2023-06-24T09:12:10;9.38;;;6.38;;
57561;SDS011;43397;51.530;5.974;2023-06-24T09:14:37;7.50;;;5.28;;
57561;SDS011;43397;51.530;5.974;2023-06-24T09:17:03;9.32;;;6.10;;
57561;SDS011;43397;51.530;5.974;2023-06-24T09:19:28;8.85;;;5.82;;
57561;SDS011;43397;51.530;5.974;2023-06-24T09:21:54;7.93;;;5.65;;
57561;SDS011;43397;51.530;5.974;2023-06-24T09:24:20;8.32;;;5.18;;
57561;SDS011;43397;51.530;5.974;2023-06-24T09:26:46;6.55;;;4.32;;
57561;SDS011;43397;51.530;5.974;2023-06-24T09:29:13;6.40;;;3.70;;
57561;SDS011;43397;51.530;5.974;2023-06-24T09:31:48;8.93;;;5.30;;
57561;SDS011;43397;51.530;5.974;2023-06-24T09:34:15;5.90;;;3.83;;
57561;SDS011;43397;51.530;5.974;2023-06-24T09:36:43;6.35;;;3.72;;
57561;SDS011;43397;51.530;5.974;2023-06-24T09:39:09;6.40;;;3.90;;
57561;SDS011;43397;51.530;5.974;2023-06-24T09:41:35;5.28;;;3.28;;
57561;SDS011;43397;51.530;5.974;2023-06-24T09:44:01;7.45;;;3.72;;
57561;SDS011;43397;51.530;5.974;2023-06-24T09:46:28;7.10;;;3.80;;
57561;SDS011;43397;51.530;5.974;2023-06-24T09:48:55;6.18;;;2.95;;
57561;SDS011;43397;51.530;5.974;2023-06-24T09:51:21;6.13;;;3.13;;
57561;SDS011;43397;51.530;5.974;2023-06-24T09:53:48;6.18;;;3.28;;
57561;SDS011;43397;51.530;5.974;2023-06-24T09:56:18;5.28;;;2.92;;
57561;SDS011;43397;51.530;5.974;2023-06-24T09:58:44;8.05;;;3.50;;
57561;SDS011;43397;51.530;5.974;2023-06-24T10:01:11;6.78;;;3.15;;
57561;SDS011;43397;51.530;5.974;2023-06-24T10:03:39;6.03;;;3.35;;
57561;SDS011;43397;51.530;5.974;2023-06-24T10:06:05;6.97;;;3.35;;
57561;SDS011;43397;51.530;5.974;2023-06-24T10:08:32;5.95;;;2.85;;
57561;SDS011;43397;51.530;5.974;2023-06-24T10:10:59;5.18;;;2.72;;
57561;SDS011;43397;51.530;5.974;2023-06-24T10:13:24;4.65;;;2.50;;
57561;SDS011;43397;51.530;5.974;2023-06-24T10:15:50;5.70;;;2.20;;
57561;SDS011;43397;51.530;5.974;2023-06-24T10:18:32;5.22;;;2.40;;
57561;SDS011;43397;51.530;5.974;2023-06-24T10:20:59;6.65;;;2.80;;
57561;SDS011;43397;51.530;5.974;2023-06-24T10:23:29;6.18;;;2.90;;
57561;SDS011;43397;51.530;5.974;2023-06-24T10:25:55;5.82;;;2.58;;
57561;SDS011;43397;51.530;5.974;2023-06-24T10:28:21;4.65;;;2.03;;
57561;SDS011;43397;51.530;5.974;2023-06-24T10:30:53;5.50;;;2.22;;
57561;SDS011;43397;51.530;5.974;2023-06-24T10:33:20;4.22;;;2.13;;
57561;SDS011;43397;51.530;5.974;2023-06-24T10:35:45;4.63;;;2.47;;
57561;SDS011;43397;51.530;5.974;2023-06-24T10:38:12;4.22;;;2.30;;
57561;SDS011;43397;51.530;5.974;2023-06-24T10:40:38;5.00;;;2.30;;
57561;SDS011;43397;51.530;5.974;2023-06-24T10:45:50;5.32;;;2.30;;
57561;SDS011;43397;51.530;5.974;2023-06-24T10:48:17;5.47;;;2.83;;
57561;SDS011;43397;51.530;5.974;2023-06-24T10:50:43;6.65;;;3.13;;
57561;SDS011;43397;51.530;5.974;2023-06-24T10:53:09;6.70;;;2.58;;
57561;SDS011;43397;51.530;5.974;2023-06-24T10:55:36;4.72;;;2.58;;
57561;SDS011;43397;51.530;5.974;2023-06-24T10:58:08;7.57;;;2.90;;
57561;SDS011;43397;51.530;5.974;2023-06-24T11:00:34;5.47;;;2.80;;
57561;SDS011;43397;51.530;5.974;2023-06-24T11:03:07;5.00;;;2.40;;
57561;SDS011;43397;51.530;5.974;2023-06-24T11:05:33;4.32;;;2.30;;
57561;SDS011;43397;51.530;5.974;2023-06-24T11:07:58;5.50;;;2.42;;
57561;SDS011;43397;51.530;5.974;2023-06-24T11:10:24;5.70;;;2.60;;
57561;SDS011;43397;51.530;5.974;2023-06-24T11:12:51;6.10;;;2.78;;
57561;SDS011;43397;51.530;5.974;2023-06-24T11:15:17;6.13;;;3.25;;
57561;SDS011;43397;51.530;5.974;2023-06-24T11:17:43;6.38;;;2.97;;
57561;SDS011;43397;51.530;5.974;2023-06-24T11:20:10;5.30;;;2.80;;
57561;SDS011;43397;51.530;5.974;2023-06-24T11:22:37;6.05;;;2.72;;
57561;SDS011;43397;51.530;5.974;2023-06-24T11:25:03;5.80;;;3.00;;
57561;SDS011;43397;51.530;5.974;2023-06-24T11:27:29;6.03;;;3.10;;
57561;SDS011;43397;51.530;5.974;2023-06-24T11:29:58;6.20;;;3.10;;
57561;SDS011;43397;51.530;5.974;2023-06-24T11:32:25;5.20;;;2.88;;
57561;SDS011;43397;51.530;5.974;2023-06-24T11:34:59;7.82;;;3.17;;
57561;SDS011;43397;51.530;5.974;2023-06-24T11:37:30;5.40;;;3.08;;
57561;SDS011;43397;51.530;5.974;2023-06-24T11:40:03;7.00;;;2.88;;
57561;SDS011;43397;51.530;5.974;2023-06-24T11:42:30;5.45;;;2.90;;
57561;SDS011;43397;51.530;5.974;2023-06-24T11:45:00;6.80;;;2.90;;
57561;SDS011;43397;51.530;5.974;2023-06-24T11:47:26;5.22;;;3.30;;
57561;SDS011;43397;51.530;5.974;2023-06-24T11:49:53;6.38;;;3.30;;
57561;SDS011;43397;51.530;5.974;2023-06-24T11:52:27;6.45;;;2.90;;
57561;SDS011;43397;51.530;5.974;2023-06-24T11:54:57;7.60;;;3.20;;
57561;SDS011;43397;51.530;5.974;2023-06-24T11:57:25;5.55;;;2.63;;
57561;SDS011;43397;51.530;5.974;2023-06-24T12:00:20;5.57;;;2.88;;
57561;SDS011;43397;51.530;5.974;2023-06-24T12:02:49;5.25;;;2.95;;
57561;SDS011;43397;51.530;5.974;2023-06-24T12:05:19;5.13;;;2.63;;
57561;SDS011;43397;51.530;5.974;2023-06-24T12:07:45;5.95;;;2.92;;
57561;SDS011;43397;51.530;5.974;2023-06-24T12:10:11;5.88;;;2.92;;
57561;SDS011;43397;51.530;5.974;2023-06-24T12:12:36;5.47;;;2.60;;
57561;SDS011;43397;51.530;5.974;2023-06-24T12:15:02;5.30;;;2.65;;
57561;SDS011;43397;51.530;5.974;2023-06-24T12:17:30;5.15;;;3.10;;
57561;SDS011;43397;51.530;5.974;2023-06-24T12:19:55;5.50;;;2.67;;
57561;SDS011;43397;51.530;5.974;2023-06-24T12:22:21;4.90;;;2.65;;
57561;SDS011;43397;51.530;5.974;2023-06-24T12:24:47;4.30;;;2.58;;
57561;SDS011;43397;51.530;5.974;2023-06-24T12:27:12;4.88;;;2.55;;
57561;SDS011;43397;51.530;5.974;2023-06-24T12:29:38;5.40;;;2.50;;
57561;SDS011;43397;51.530;5.974;2023-06-24T12:32:04;5.80;;;2.60;;
57561;SDS011;43397;51.530;5.974;2023-06-24T12:34:31;4.38;;;2.25;;
57561;SDS011;43397;51.530;5.974;2023-06-24T12:36:57;5.13;;;2.20;;
57561;SDS011;43397;51.530;5.974;2023-06-24T12:39:23;5.60;;;2.50;;
57561;SDS011;43397;51.530;5.974;2023-06-24T12:41:48;6.43;;;2.47;;
57561;SDS011;43397;51.530;5.974;2023-06-24T12:44:14;6.65;;;2.58;;
57561;SDS011;43397;51.530;5.974;2023-06-24T12:46:40;5.05;;;2.85;;
57561;SDS011;43397;51.530;5.974;2023-06-24T12:49:05;5.28;;;3.22;;
57561;SDS011;43397;51.530;5.974;2023-06-24T12:51:32;4.30;;;2.30;;
57561;SDS011;43397;51.530;5.974;2023-06-24T12:53:58;5.55;;;3.05;;
57561;SDS011;43397;51.530;5.974;2023-06-24T12:56:23;4.47;;;2.55;;
57561;SDS011;43397;51.530;5.974;2023-06-24T12:58:49;5.47;;;3.03;;
57561;SDS011;43397;51.530;5.974;2023-06-24T13:01:15;5.18;;;2.67;;
57561;SDS011;43397;51.530;5.974;2023-06-24T13:03:40;6.57;;;2.63;;
57561;SDS011;43397;51.530;5.974;2023-06-24T13:06:06;4.60;;;2.70;;
57561;SDS011;43397;51.530;5.974;2023-06-24T13:08:33;4.30;;;2.33;;
57561;SDS011;43397;51.530;5.974;2023-06-24T13:10:59;4.45;;;2.47;;
57561;SDS011;43397;51.530;5.974;2023-06-24T13:13:24;4.70;;;2.60;;
57561;SDS011;43397;51.530;5.974;2023-06-24T13:15:50;4.75;;;2.60;;
57561;SDS011;43397;51.530;5.974;2023-06-24T13:18:16;4.07;;;2.35;;
57561;SDS011;43397;51.530;5.974;2023-06-24T13:20:42;5.25;;;2.30;;
57561;SDS011;43397;51.530;5.974;2023-06-24T13:23:07;4.80;;;2.40;;
57561;SDS011;43397;51.530;5.974;2023-06-24T13:25:34;5.13;;;2.83;;
57561;SDS011;43397;51.530;5.974;2023-06-24T13:28:00;4.82;;;2.63;;
57561;SDS011;43397;51.530;5.974;2023-06-24T13:30:26;5.82;;;2.55;;
57561;SDS011;43397;51.530;5.974;2023-06-24T13:32:52;4.45;;;2.30;;
57561;SDS011;43397;51.530;5.974;2023-06-24T13:35:17;4.78;;;2.55;;
57561;SDS011;43397;51.530;5.974;2023-06-24T13:37:43;5.30;;;3.05;;
57561;SDS011;43397;51.530;5.974;2023-06-24T13:40:09;5.57;;;2.70;;
57561;SDS011;43397;51.530;5.974;2023-06-24T13:42:37;4.32;;;2.30;;
57561;SDS011;43397;51.530;5.974;2023-06-24T13:45:03;4.40;;;2.50;;
57561;SDS011;43397;51.530;5.974;2023-06-24T13:47:29;3.97;;;2.17;;
57561;SDS011;43397;51.530;5.974;2023-06-24T13:49:55;5.22;;;2.60;;
57561;SDS011;43397;51.530;5.974;2023-06-24T13:52:20;5.05;;;2.45;;
57561;SDS011;43397;51.530;5.974;2023-06-24T13:54:46;5.68;;;2.70;;
57561;SDS011;43397;51.530;5.974;2023-06-24T13:57:12;4.30;;;2.30;;
57561;SDS011;43397;51.530;5.974;2023-06-24T13:59:39;5.28;;;2.72;;
57561;SDS011;43397;51.530;5.974;2023-06-24T14:02:05;4.40;;;2.40;;
57561;SDS011;43397;51.530;5.974;2023-06-24T14:04:30;5.65;;;2.70;;
57561;SDS011;43397;51.530;5.974;2023-06-24T14:06:56;4.60;;;2.42;;
57561;SDS011;43397;51.530;5.974;2023-06-24T14:09:22;5.32;;;2.70;;
57561;SDS011;43397;51.530;5.974;2023-06-24T14:11:47;5.30;;;2.55;;
57561;SDS011;43397;51.530;5.974;2023-06-24T14:14:13;6.15;;;2.80;;
57561;SDS011;43397;51.530;5.974;2023-06-24T14:16:40;4.95;;;3.00;;
57561;SDS011;43397;51.530;5.974;2023-06-24T14:19:06;5.85;;;2.97;;
57561;SDS011;43397;51.530;5.974;2023-06-24T14:21:31;5.70;;;3.00;;
57561;SDS011;43397;51.530;5.974;2023-06-24T14:23:57;5.97;;;3.00;;
57561;SDS011;43397;51.530;5.974;2023-06-24T14:26:23;5.18;;;2.75;;
57561;SDS011;43397;51.530;5.974;2023-06-24T14:28:48;4.70;;;2.60;;
57561;SDS011;43397;51.530;5.974;2023-06-24T14:31:14;4.82;;;2.58;;
57561;SDS011;43397;51.530;5.974;2023-06-24T14:33:41;7.03;;;2.67;;
57561;SDS011;43397;51.530;5.974;2023-06-24T14:36:07;5.65;;;3.08;;